sensor_id;sensor_type;location;lat;lon;timestamp;P1;durP1;ratioP1;P2;durP2;ratioP2
76228;SDS011;65021;53.174;18.160;2023-04-24T00:01:04;9.10;;;5.20;;
76228;SDS011;65021;53.174;18.160;2023-04-24T00:03:33;9.20;;;5.10;;
76228;SDS011;65021;53.174;18.160;2023-04-24T00:06:00;9.80;;;4.70;;
76228;SDS011;65021;53.174;18.160;2023-04-24T00:08:28;8.40;;;4.90;;
76228;SDS011;65021;53.174;18.160;2023-04-24T00:10:55;9.10;;;4.30;;
76228;SDS011;65021;53.174;18.160;2023-04-24T00:13:22;8.10;;;5.00;;
76228;SDS011;65021;53.174;18.160;2023-04-24T00:15:48;8.90;;;5.40;;
76228;SDS011;65021;53.174;18.160;2023-04-24T00:18:15;8.90;;;4.80;;
76228;SDS011;65021;53.174;18.160;2023-04-24T00:20:42;8.90;;;5.00;;
76228;SDS011;65021;53.174;18.160;2023-04-24T00:23:09;6.90;;;3.70;;
76228;SDS011;65021;53.174;18.160;2023-04-24T00:25:36;8.60;;;4.70;;
76228;SDS011;65021;53.174;18.160;2023-04-24T00:28:03;11.10;;;5.50;;
76228;SDS011;65021;53.174;18.160;2023-04-24T00:30:29;8.70;;;4.70;;
76228;SDS011;65021;53.174;18.160;2023-04-24T00:32:56;11.80;;;7.40;;
76228;SDS011;65021;53.174;18.160;2023-04-24T00:35:23;9.70;;;5.30;;
76228;SDS011;65021;53.174;18.160;2023-04-24T00:37:50;10.60;;;6.30;;
76228;SDS011;65021;53.174;18.160;2023-04-24T00:40:17;10.50;;;5.70;;
76228;SDS011;65021;53.174;18.160;2023-04-24T00:42:43;8.10;;;4.60;;
76228;SDS011;65021;53.174;18.160;2023-04-24T00:45:11;9.70;;;5.60;;
76228;SDS011;65021;53.174;18.160;2023-04-24T00:47:38;7.60;;;4.70;;
76228;SDS011;65021;53.174;18.160;2023-04-24T00:50:05;9.30;;;5.50;;
76228;SDS011;65021;53.174;18.160;2023-04-24T00:52:34;10.30;;;5.90;;
76228;SDS011;65021;53.174;18.160;2023-04-24T00:55:00;9.70;;;5.70;;
76228;SDS011;65021;53.174;18.160;2023-04-24T00:57:27;11.60;;;7.10;;
76228;SDS011;65021;53.174;18.160;2023-04-24T00:59:54;9.90;;;6.30;;
76228;SDS011;65021;53.174;18.160;2023-04-24T01:02:21;11.30;;;6.80;;
76228;SDS011;65021;53.174;18.160;2023-04-24T01:04:49;9.00;;;6.00;;
76228;SDS011;65021;53.174;18.160;2023-04-24T01:07:22;10.10;;;6.50;;
76228;SDS011;65021;53.174;18.160;2023-04-24T01:09:49;12.70;;;7.00;;
76228;SDS011;65021;53.174;18.160;2023-04-24T01:12:18;11.40;;;7.00;;
76228;SDS011;65021;53.174;18.160;2023-04-24T01:14:46;13.10;;;7.30;;
76228;SDS011;65021;53.174;18.160;2023-04-24T01:17:13;13.10;;;6.80;;
76228;SDS011;65021;53.174;18.160;2023-04-24T01:19:39;12.10;;;6.70;;
76228;SDS011;65021;53.174;18.160;2023-04-24T01:22:12;15.30;;;8.40;;
76228;SDS011;65021;53.174;18.160;2023-04-24T01:24:40;10.80;;;6.60;;
76228;SDS011;65021;53.174;18.160;2023-04-24T01:27:08;12.10;;;6.20;;
76228;SDS011;65021;53.174;18.160;2023-04-24T01:29:38;14.70;;;8.10;;
76228;SDS011;65021;53.174;18.160;2023-04-24T01:32:05;13.10;;;7.60;;
76228;SDS011;65021;53.174;18.160;2023-04-24T01:34:33;11.90;;;7.00;;
76228;SDS011;65021;53.174;18.160;2023-04-24T01:37:00;14.20;;;8.40;;
76228;SDS011;65021;53.174;18.160;2023-04-24T01:39:31;13.30;;;7.40;;
76228;SDS011;65021;53.174;18.160;2023-04-24T01:41:59;15.80;;;8.30;;
76228;SDS011;65021;53.174;18.160;2023-04-24T01:44:28;12.30;;;7.10;;
76228;SDS011;65021;53.174;18.160;2023-04-24T01:46:56;13.70;;;7.40;;
76228;SDS011;65021;53.174;18.160;2023-04-24T01:49:26;13.10;;;7.00;;
76228;SDS011;65021;53.174;18.160;2023-04-24T01:51:52;14.50;;;7.90;;
76228;SDS011;65021;53.174;18.160;2023-04-24T01:54:19;14.50;;;8.00;;
76228;SDS011;65021;53.174;18.160;2023-04-24T01:56:46;15.90;;;7.70;;
76228;SDS011;65021;53.174;18.160;2023-04-24T01:59:13;15.10;;;8.10;;
76228;SDS011;65021;53.174;18.160;2023-04-24T02:01:41;14.90;;;8.40;;
76228;SDS011;65021;53.174;18.160;2023-04-24T02:04:08;15.40;;;8.10;;
76228;SDS011;65021;53.174;18.160;2023-04-24T02:06:35;13.60;;;7.90;;
76228;SDS011;65021;53.174;18.160;2023-04-24T02:09:01;12.80;;;7.50;;
76228;SDS011;65021;53.174;18.160;2023-04-24T02:11:31;16.20;;;8.00;;
76228;SDS011;65021;53.174;18.160;2023-04-24T02:13:58;14.40;;;8.20;;
76228;SDS011;65021;53.174;18.160;2023-04-24T02:16:25;17.30;;;8.80;;
76228;SDS011;65021;53.174;18.160;2023-04-24T02:18:59;17.80;;;11.30;;
76228;SDS011;65021;53.174;18.160;2023-04-24T02:21:26;17.90;;;10.20;;
76228;SDS011;65021;53.174;18.160;2023-04-24T02:23:57;19.70;;;10.80;;
76228;SDS011;65021;53.174;18.160;2023-04-24T02:26:23;17.40;;;10.90;;
76228;SDS011;65021;53.174;18.160;2023-04-24T02:28:51;16.80;;;10.20;;
76228;SDS011;65021;53.174;18.160;2023-04-24T02:31:18;17.70;;;9.30;;
76228;SDS011;65021;53.174;18.160;2023-04-24T02:33:44;20.10;;;10.40;;
76228;SDS011;65021;53.174;18.160;2023-04-24T02:36:11;16.40;;;9.90;;
76228;SDS011;65021;53.174;18.160;2023-04-24T02:38:37;18.00;;;10.30;;
76228;SDS011;65021;53.174;18.160;2023-04-24T02:41:04;15.90;;;8.70;;
76228;SDS011;65021;53.174;18.160;2023-04-24T02:43:32;16.90;;;9.00;;
76228;SDS011;65021;53.174;18.160;2023-04-24T02:45:59;16.40;;;8.80;;
76228;SDS011;65021;53.174;18.160;2023-04-24T02:48:26;17.30;;;8.80;;
76228;SDS011;65021;53.174;18.160;2023-04-24T02:50:53;16.60;;;7.30;;
76228;SDS011;65021;53.174;18.160;2023-04-24T02:53:20;27.00;;;10.00;;
76228;SDS011;65021;53.174;18.160;2023-04-24T02:55:47;18.50;;;9.70;;
76228;SDS011;65021;53.174;18.160;2023-04-24T02:58:13;18.30;;;10.50;;
76228;SDS011;65021;53.174;18.160;2023-04-24T03:00:40;17.10;;;9.60;;
76228;SDS011;65021;53.174;18.160;2023-04-24T03:03:07;18.90;;;10.00;;
76228;SDS011;65021;53.174;18.160;2023-04-24T03:05:34;16.80;;;8.90;;
76228;SDS011;65021;53.174;18.160;2023-04-24T03:08:00;17.70;;;9.40;;
76228;SDS011;65021;53.174;18.160;2023-04-24T03:10:27;15.70;;;9.80;;
76228;SDS011;65021;53.174;18.160;2023-04-24T03:12:53;16.00;;;9.10;;
76228;SDS011;65021;53.174;18.160;2023-04-24T03:15:21;18.90;;;11.90;;
76228;SDS011;65021;53.174;18.160;2023-04-24T03:17:47;15.90;;;9.40;;
76228;SDS011;65021;53.174;18.160;2023-04-24T03:20:15;19.60;;;11.10;;
76228;SDS011;65021;53.174;18.160;2023-04-24T03:22:42;22.50;;;11.50;;
76228;SDS011;65021;53.174;18.160;2023-04-24T03:25:09;18.60;;;11.30;;
76228;SDS011;65021;53.174;18.160;2023-04-24T03:27:36;19.30;;;10.90;;
76228;SDS011;65021;53.174;18.160;2023-04-24T03:30:03;20.00;;;10.30;;
76228;SDS011;65021;53.174;18.160;2023-04-24T03:32:30;21.40;;;10.70;;
76228;SDS011;65021;53.174;18.160;2023-04-24T03:34:58;21.10;;;11.60;;
76228;SDS011;65021;53.174;18.160;2023-04-24T03:37:25;22.60;;;12.40;;
76228;SDS011;65021;53.174;18.160;2023-04-24T03:39:52;21.30;;;10.80;;
76228;SDS011;65021;53.174;18.160;2023-04-24T03:42:19;20.00;;;12.30;;
76228;SDS011;65021;53.174;18.160;2023-04-24T03:44:45;25.80;;;14.40;;
76228;SDS011;65021;53.174;18.160;2023-04-24T03:47:12;28.10;;;15.60;;
76228;SDS011;65021;53.174;18.160;2023-04-24T03:49:39;29.80;;;15.90;;
76228;SDS011;65021;53.174;18.160;2023-04-24T03:52:06;27.60;;;15.10;;
76228;SDS011;65021;53.174;18.160;2023-04-24T03:54:32;28.40;;;14.60;;
76228;SDS011;65021;53.174;18.160;2023-04-24T03:56:59;22.60;;;13.40;;
76228;SDS011;65021;53.174;18.160;2023-04-24T03:59:26;25.00;;;13.70;;
76228;SDS011;65021;53.174;18.160;2023-04-24T04:01:52;23.70;;;13.30;;
76228;SDS011;65021;53.174;18.160;2023-04-24T04:04:19;24.20;;;13.30;;
76228;SDS011;65021;53.174;18.160;2023-04-24T04:06:46;23.20;;;13.90;;
76228;SDS011;65021;53.174;18.160;2023-04-24T04:09:12;23.30;;;12.20;;
76228;SDS011;65021;53.174;18.160;2023-04-24T04:11:39;19.70;;;11.50;;
76228;SDS011;65021;53.174;18.160;2023-04-24T04:14:06;17.70;;;9.90;;
76228;SDS011;65021;53.174;18.160;2023-04-24T04:16:32;17.80;;;10.10;;
76228;SDS011;65021;53.174;18.160;2023-04-24T04:18:59;17.80;;;10.30;;
76228;SDS011;65021;53.174;18.160;2023-04-24T04:21:25;19.00;;;11.70;;
76228;SDS011;65021;53.174;18.160;2023-04-24T04:23:53;19.70;;;10.00;;
76228;SDS011;65021;53.174;18.160;2023-04-24T04:26:20;17.60;;;10.00;;
76228;SDS011;65021;53.174;18.160;2023-04-24T04:28:47;18.60;;;10.40;;
76228;SDS011;65021;53.174;18.160;2023-04-24T04:31:15;14.40;;;9.10;;
76228;SDS011;65021;53.174;18.160;2023-04-24T04:33:44;21.50;;;11.90;;
76228;SDS011;65021;53.174;18.160;2023-04-24T04:36:11;18.50;;;11.70;;
76228;SDS011;65021;53.174;18.160;2023-04-24T04:38:38;18.70;;;11.00;;
76228;SDS011;65021;53.174;18.160;2023-04-24T04:41:06;22.10;;;12.90;;
76228;SDS011;65021;53.174;18.160;2023-04-24T04:43:33;18.80;;;10.60;;
76228;SDS011;65021;53.174;18.160;2023-04-24T04:46:00;19.80;;;11.30;;
76228;SDS011;65021;53.174;18.160;2023-04-24T04:48:29;25.30;;;15.00;;
76228;SDS011;65021;53.174;18.160;2023-04-24T04:50:57;27.30;;;15.00;;
76228;SDS011;65021;53.174;18.160;2023-04-24T04:53:24;21.80;;;12.50;;
76228;SDS011;65021;53.174;18.160;2023-04-24T04:55:52;25.10;;;12.00;;
76228;SDS011;65021;53.174;18.160;2023-04-24T04:58:18;22.40;;;14.50;;
76228;SDS011;65021;53.174;18.160;2023-04-24T05:00:45;26.90;;;16.90;;
76228;SDS011;65021;53.174;18.160;2023-04-24T05:03:12;25.60;;;15.00;;
76228;SDS011;65021;53.174;18.160;2023-04-24T05:05:39;24.30;;;13.80;;
76228;SDS011;65021;53.174;18.160;2023-04-24T05:08:07;26.50;;;15.60;;
76228;SDS011;65021;53.174;18.160;2023-04-24T05:10:34;23.20;;;14.00;;
76228;SDS011;65021;53.174;18.160;2023-04-24T05:13:03;24.80;;;14.40;;
76228;SDS011;65021;53.174;18.160;2023-04-24T05:15:31;19.40;;;12.30;;
76228;SDS011;65021;53.174;18.160;2023-04-24T05:17:57;23.20;;;13.10;;
76228;SDS011;65021;53.174;18.160;2023-04-24T05:20:25;20.00;;;11.80;;
76228;SDS011;65021;53.174;18.160;2023-04-24T05:22:51;18.80;;;11.90;;
76228;SDS011;65021;53.174;18.160;2023-04-24T05:25:18;18.50;;;11.40;;
76228;SDS011;65021;53.174;18.160;2023-04-24T05:27:44;19.80;;;12.30;;
76228;SDS011;65021;53.174;18.160;2023-04-24T05:30:13;20.00;;;11.30;;
76228;SDS011;65021;53.174;18.160;2023-04-24T05:32:40;19.90;;;12.00;;
76228;SDS011;65021;53.174;18.160;2023-04-24T05:35:06;17.50;;;10.10;;
76228;SDS011;65021;53.174;18.160;2023-04-24T05:37:33;17.20;;;11.10;;
76228;SDS011;65021;53.174;18.160;2023-04-24T05:40:00;20.60;;;12.30;;
76228;SDS011;65021;53.174;18.160;2023-04-24T05:42:26;16.00;;;11.40;;
76228;SDS011;65021;53.174;18.160;2023-04-24T05:44:53;18.90;;;10.70;;
76228;SDS011;65021;53.174;18.160;2023-04-24T05:47:20;19.50;;;11.30;;
76228;SDS011;65021;53.174;18.160;2023-04-24T05:49:48;18.90;;;11.30;;
76228;SDS011;65021;53.174;18.160;2023-04-24T05:52:14;15.40;;;10.10;;
76228;SDS011;65021;53.174;18.160;2023-04-24T05:54:41;18.30;;;10.80;;
76228;SDS011;65021;53.174;18.160;2023-04-24T05:57:07;17.50;;;10.90;;
76228;SDS011;65021;53.174;18.160;2023-04-24T05:59:36;16.30;;;9.80;;
76228;SDS011;65021;53.174;18.160;2023-04-24T06:02:04;14.20;;;9.80;;
76228;SDS011;65021;53.174;18.160;2023-04-24T06:04:32;14.60;;;9.60;;
76228;SDS011;65021;53.174;18.160;2023-04-24T06:06:59;13.90;;;8.50;;
76228;SDS011;65021;53.174;18.160;2023-04-24T06:09:26;16.50;;;9.90;;
76228;SDS011;65021;53.174;18.160;2023-04-24T06:11:52;17.50;;;10.70;;
76228;SDS011;65021;53.174;18.160;2023-04-24T06:14:19;20.60;;;9.80;;
76228;SDS011;65021;53.174;18.160;2023-04-24T06:16:46;12.60;;;8.70;;
76228;SDS011;65021;53.174;18.160;2023-04-24T06:19:13;17.00;;;9.20;;
76228;SDS011;65021;53.174;18.160;2023-04-24T06:21:39;16.20;;;9.90;;
76228;SDS011;65021;53.174;18.160;2023-04-24T06:24:06;13.60;;;8.20;;
76228;SDS011;65021;53.174;18.160;2023-04-24T06:26:32;14.90;;;8.70;;
76228;SDS011;65021;53.174;18.160;2023-04-24T06:28:59;12.70;;;8.10;;
76228;SDS011;65021;53.174;18.160;2023-04-24T06:31:26;12.50;;;8.00;;
76228;SDS011;65021;53.174;18.160;2023-04-24T06:33:52;18.10;;;10.30;;
76228;SDS011;65021;53.174;18.160;2023-04-24T06:36:19;13.70;;;8.90;;
76228;SDS011;65021;53.174;18.160;2023-04-24T06:38:46;13.80;;;9.00;;
76228;SDS011;65021;53.174;18.160;2023-04-24T06:41:13;14.70;;;8.10;;
76228;SDS011;65021;53.174;18.160;2023-04-24T06:43:39;13.00;;;8.30;;
76228;SDS011;65021;53.174;18.160;2023-04-24T06:46:06;16.00;;;8.10;;
76228;SDS011;65021;53.174;18.160;2023-04-24T06:48:33;13.80;;;6.70;;
76228;SDS011;65021;53.174;18.160;2023-04-24T06:50:59;14.10;;;8.50;;
76228;SDS011;65021;53.174;18.160;2023-04-24T06:53:26;14.80;;;7.60;;
76228;SDS011;65021;53.174;18.160;2023-04-24T06:55:53;12.60;;;8.30;;
76228;SDS011;65021;53.174;18.160;2023-04-24T06:58:20;14.70;;;8.60;;
76228;SDS011;65021;53.174;18.160;2023-04-24T07:00:46;12.40;;;7.90;;
76228;SDS011;65021;53.174;18.160;2023-04-24T07:03:13;12.70;;;7.40;;
76228;SDS011;65021;53.174;18.160;2023-04-24T07:05:40;12.20;;;7.70;;
76228;SDS011;65021;53.174;18.160;2023-04-24T07:08:07;14.80;;;8.00;;
76228;SDS011;65021;53.174;18.160;2023-04-24T07:10:34;12.10;;;7.50;;
76228;SDS011;65021;53.174;18.160;2023-04-24T07:13:01;13.60;;;7.70;;
76228;SDS011;65021;53.174;18.160;2023-04-24T07:15:28;11.40;;;7.50;;
76228;SDS011;65021;53.174;18.160;2023-04-24T07:17:55;9.60;;;6.10;;
76228;SDS011;65021;53.174;18.160;2023-04-24T07:20:21;11.90;;;6.90;;
76228;SDS011;65021;53.174;18.160;2023-04-24T07:22:48;13.70;;;6.70;;
76228;SDS011;65021;53.174;18.160;2023-04-24T07:25:15;11.70;;;7.90;;
76228;SDS011;65021;53.174;18.160;2023-04-24T07:27:42;11.90;;;7.40;;
76228;SDS011;65021;53.174;18.160;2023-04-24T07:30:09;8.60;;;5.40;;
76228;SDS011;65021;53.174;18.160;2023-04-24T07:32:36;12.00;;;6.40;;
76228;SDS011;65021;53.174;18.160;2023-04-24T07:35:02;12.90;;;6.80;;
76228;SDS011;65021;53.174;18.160;2023-04-24T07:37:29;13.20;;;6.80;;
76228;SDS011;65021;53.174;18.160;2023-04-24T07:39:56;12.90;;;5.70;;
76228;SDS011;65021;53.174;18.160;2023-04-24T07:42:23;12.10;;;7.50;;
76228;SDS011;65021;53.174;18.160;2023-04-24T07:44:50;11.40;;;6.60;;
76228;SDS011;65021;53.174;18.160;2023-04-24T07:47:17;13.20;;;8.60;;
76228;SDS011;65021;53.174;18.160;2023-04-24T07:49:43;12.40;;;6.60;;
76228;SDS011;65021;53.174;18.160;2023-04-24T07:52:10;12.10;;;6.80;;
76228;SDS011;65021;53.174;18.160;2023-04-24T07:54:37;12.40;;;7.10;;
76228;SDS011;65021;53.174;18.160;2023-04-24T07:57:03;11.50;;;6.90;;
76228;SDS011;65021;53.174;18.160;2023-04-24T07:59:30;12.50;;;6.40;;
76228;SDS011;65021;53.174;18.160;2023-04-24T08:01:57;12.00;;;6.80;;
76228;SDS011;65021;53.174;18.160;2023-04-24T08:04:23;10.30;;;6.30;;
76228;SDS011;65021;53.174;18.160;2023-04-24T08:06:50;12.60;;;6.60;;
76228;SDS011;65021;53.174;18.160;2023-04-24T08:09:17;12.10;;;5.50;;
76228;SDS011;65021;53.174;18.160;2023-04-24T08:11:43;11.50;;;5.80;;
76228;SDS011;65021;53.174;18.160;2023-04-24T08:14:10;12.20;;;6.10;;
76228;SDS011;65021;53.174;18.160;2023-04-24T08:16:38;8.90;;;4.70;;
76228;SDS011;65021;53.174;18.160;2023-04-24T08:19:05;10.20;;;5.50;;
76228;SDS011;65021;53.174;18.160;2023-04-24T08:21:31;10.70;;;5.60;;
76228;SDS011;65021;53.174;18.160;2023-04-24T08:23:58;11.80;;;6.10;;
76228;SDS011;65021;53.174;18.160;2023-04-24T08:26:25;9.20;;;5.00;;
76228;SDS011;65021;53.174;18.160;2023-04-24T08:28:51;10.20;;;5.20;;
76228;SDS011;65021;53.174;18.160;2023-04-24T08:31:18;8.80;;;4.90;;
76228;SDS011;65021;53.174;18.160;2023-04-24T08:33:44;7.00;;;3.90;;
76228;SDS011;65021;53.174;18.160;2023-04-24T08:36:12;7.80;;;4.90;;
76228;SDS011;65021;53.174;18.160;2023-04-24T08:38:38;7.00;;;4.30;;
76228;SDS011;65021;53.174;18.160;2023-04-24T08:41:05;8.90;;;5.00;;
76228;SDS011;65021;53.174;18.160;2023-04-24T08:43:33;6.70;;;2.70;;
76228;SDS011;65021;53.174;18.160;2023-04-24T08:46:03;6.50;;;4.10;;
76228;SDS011;65021;53.174;18.160;2023-04-24T08:48:30;7.70;;;4.50;;
76228;SDS011;65021;53.174;18.160;2023-04-24T08:50:58;9.10;;;5.00;;
76228;SDS011;65021;53.174;18.160;2023-04-24T08:53:25;8.40;;;4.70;;
76228;SDS011;65021;53.174;18.160;2023-04-24T08:55:53;9.80;;;3.90;;
76228;SDS011;65021;53.174;18.160;2023-04-24T08:58:21;7.10;;;4.10;;
76228;SDS011;65021;53.174;18.160;2023-04-24T09:00:52;7.70;;;4.40;;
76228;SDS011;65021;53.174;18.160;2023-04-24T09:03:20;8.20;;;4.10;;
76228;SDS011;65021;53.174;18.160;2023-04-24T09:05:48;7.50;;;4.40;;
76228;SDS011;65021;53.174;18.160;2023-04-24T09:08:17;7.50;;;3.70;;
76228;SDS011;65021;53.174;18.160;2023-04-24T09:10:45;6.00;;;3.60;;
76228;SDS011;65021;53.174;18.160;2023-04-24T09:13:12;6.70;;;4.10;;
76228;SDS011;65021;53.174;18.160;2023-04-24T09:15:40;7.30;;;4.50;;
76228;SDS011;65021;53.174;18.160;2023-04-24T09:18:07;6.80;;;4.00;;
76228;SDS011;65021;53.174;18.160;2023-04-24T09:20:34;8.50;;;4.00;;
76228;SDS011;65021;53.174;18.160;2023-04-24T09:23:02;7.80;;;4.20;;
76228;SDS011;65021;53.174;18.160;2023-04-24T09:25:32;7.20;;;5.10;;
76228;SDS011;65021;53.174;18.160;2023-04-24T09:28:03;6.20;;;3.60;;
76228;SDS011;65021;53.174;18.160;2023-04-24T09:30:32;6.70;;;3.70;;
76228;SDS011;65021;53.174;18.160;2023-04-24T09:33:12;8.10;;;5.00;;
76228;SDS011;65021;53.174;18.160;2023-04-24T09:35:48;6.50;;;4.20;;
76228;SDS011;65021;53.174;18.160;2023-04-24T09:38:16;9.00;;;4.20;;
76228;SDS011;65021;53.174;18.160;2023-04-24T09:40:43;8.90;;;4.60;;
76228;SDS011;65021;53.174;18.160;2023-04-24T09:43:12;7.40;;;4.40;;
76228;SDS011;65021;53.174;18.160;2023-04-24T09:45:39;6.60;;;3.80;;
76228;SDS011;65021;53.174;18.160;2023-04-24T09:48:09;9.80;;;4.20;;
76228;SDS011;65021;53.174;18.160;2023-04-24T09:50:36;6.20;;;3.20;;
76228;SDS011;65021;53.174;18.160;2023-04-24T09:53:03;8.40;;;4.70;;
76228;SDS011;65021;53.174;18.160;2023-04-24T09:55:31;7.80;;;4.30;;
76228;SDS011;65021;53.174;18.160;2023-04-24T09:57:58;8.20;;;4.70;;
76228;SDS011;65021;53.174;18.160;2023-04-24T10:00:27;9.00;;;5.30;;
76228;SDS011;65021;53.174;18.160;2023-04-24T10:02:56;6.80;;;4.30;;
76228;SDS011;65021;53.174;18.160;2023-04-24T10:05:27;7.50;;;4.10;;
76228;SDS011;65021;53.174;18.160;2023-04-24T10:08:05;7.50;;;3.50;;
76228;SDS011;65021;53.174;18.160;2023-04-24T10:10:33;5.40;;;3.80;;
76228;SDS011;65021;53.174;18.160;2023-04-24T10:13:03;7.00;;;4.30;;
76228;SDS011;65021;53.174;18.160;2023-04-24T10:15:30;6.50;;;3.80;;
76228;SDS011;65021;53.174;18.160;2023-04-24T10:17:58;7.50;;;4.10;;
76228;SDS011;65021;53.174;18.160;2023-04-24T10:20:26;9.30;;;4.40;;
76228;SDS011;65021;53.174;18.160;2023-04-24T10:22:55;8.40;;;4.50;;
76228;SDS011;65021;53.174;18.160;2023-04-24T10:25:24;6.00;;;4.30;;
76228;SDS011;65021;53.174;18.160;2023-04-24T10:27:54;6.70;;;4.20;;
76228;SDS011;65021;53.174;18.160;2023-04-24T10:30:29;6.00;;;3.70;;
76228;SDS011;65021;53.174;18.160;2023-04-24T10:33:04;6.10;;;4.00;;
76228;SDS011;65021;53.174;18.160;2023-04-24T10:35:34;7.20;;;3.60;;
76228;SDS011;65021;53.174;18.160;2023-04-24T10:43:17;7.50;;;4.20;;
76228;SDS011;65021;53.174;18.160;2023-04-24T10:46:04;6.60;;;3.70;;
76228;SDS011;65021;53.174;18.160;2023-04-24T10:48:32;7.20;;;3.50;;
76228;SDS011;65021;53.174;18.160;2023-04-24T10:50:59;7.10;;;4.00;;
76228;SDS011;65021;53.174;18.160;2023-04-24T10:53:28;6.90;;;4.20;;
76228;SDS011;65021;53.174;18.160;2023-04-24T10:58:35;5.30;;;3.40;;
76228;SDS011;65021;53.174;18.160;2023-04-24T11:01:25;6.00;;;3.80;;
76228;SDS011;65021;53.174;18.160;2023-04-24T11:03:57;7.60;;;3.60;;
76228;SDS011;65021;53.174;18.160;2023-04-24T11:08:58;6.20;;;3.70;;
76228;SDS011;65021;53.174;18.160;2023-04-24T11:16:27;8.90;;;4.70;;
76228;SDS011;65021;53.174;18.160;2023-04-24T11:26:55;8.90;;;5.50;;
76228;SDS011;65021;53.174;18.160;2023-04-24T11:29:23;8.60;;;4.80;;
76228;SDS011;65021;53.174;18.160;2023-04-24T11:32:27;10.80;;;5.30;;
76228;SDS011;65021;53.174;18.160;2023-04-24T11:35:10;11.40;;;6.10;;
76228;SDS011;65021;53.174;18.160;2023-04-24T11:37:48;9.50;;;5.20;;
76228;SDS011;65021;53.174;18.160;2023-04-24T11:40:16;7.70;;;4.90;;
76228;SDS011;65021;53.174;18.160;2023-04-24T11:42:47;10.50;;;5.60;;
76228;SDS011;65021;53.174;18.160;2023-04-24T11:45:15;8.10;;;4.50;;
76228;SDS011;65021;53.174;18.160;2023-04-24T11:47:44;9.40;;;5.60;;
76228;SDS011;65021;53.174;18.160;2023-04-24T11:50:12;7.20;;;4.90;;
76228;SDS011;65021;53.174;18.160;2023-04-24T11:55:09;8.10;;;4.90;;
76228;SDS011;65021;53.174;18.160;2023-04-24T11:57:51;7.70;;;4.50;;
76228;SDS011;65021;53.174;18.160;2023-04-24T12:00:21;9.10;;;6.00;;
76228;SDS011;65021;53.174;18.160;2023-04-24T12:02:49;8.00;;;4.70;;
76228;SDS011;65021;53.174;18.160;2023-04-24T12:05:19;10.10;;;5.70;;
76228;SDS011;65021;53.174;18.160;2023-04-24T12:07:50;10.60;;;6.10;;
76228;SDS011;65021;53.174;18.160;2023-04-24T12:10:23;7.40;;;5.30;;
76228;SDS011;65021;53.174;18.160;2023-04-24T12:12:51;9.20;;;5.40;;
76228;SDS011;65021;53.174;18.160;2023-04-24T12:15:19;9.00;;;6.20;;
76228;SDS011;65021;53.174;18.160;2023-04-24T12:17:46;9.90;;;6.50;;
76228;SDS011;65021;53.174;18.160;2023-04-24T12:20:13;11.50;;;5.20;;
76228;SDS011;65021;53.174;18.160;2023-04-24T12:22:48;8.30;;;5.20;;
76228;SDS011;65021;53.174;18.160;2023-04-24T12:25:17;9.10;;;5.30;;
76228;SDS011;65021;53.174;18.160;2023-04-24T12:27:45;8.60;;;5.10;;
76228;SDS011;65021;53.174;18.160;2023-04-24T12:30:14;9.30;;;5.30;;
76228;SDS011;65021;53.174;18.160;2023-04-24T12:32:45;8.10;;;5.10;;
76228;SDS011;65021;53.174;18.160;2023-04-24T12:35:13;9.00;;;4.10;;
76228;SDS011;65021;53.174;18.160;2023-04-24T12:37:46;8.90;;;4.30;;
76228;SDS011;65021;53.174;18.160;2023-04-24T12:40:13;8.10;;;4.70;;
76228;SDS011;65021;53.174;18.160;2023-04-24T12:42:45;6.30;;;3.80;;
76228;SDS011;65021;53.174;18.160;2023-04-24T12:45:13;6.90;;;4.00;;
76228;SDS011;65021;53.174;18.160;2023-04-24T12:47:41;7.80;;;3.90;;
76228;SDS011;65021;53.174;18.160;2023-04-24T12:50:09;5.90;;;3.10;;
76228;SDS011;65021;53.174;18.160;2023-04-24T12:52:40;7.20;;;3.30;;
76228;SDS011;65021;53.174;18.160;2023-04-24T12:55:07;8.60;;;3.10;;
76228;SDS011;65021;53.174;18.160;2023-04-24T12:57:36;5.90;;;2.80;;
76228;SDS011;65021;53.174;18.160;2023-04-24T13:00:04;7.50;;;2.70;;
76228;SDS011;65021;53.174;18.160;2023-04-24T13:02:33;4.70;;;2.20;;
76228;SDS011;65021;53.174;18.160;2023-04-24T13:05:00;4.70;;;2.50;;
76228;SDS011;65021;53.174;18.160;2023-04-24T13:07:27;6.70;;;2.70;;
76228;SDS011;65021;53.174;18.160;2023-04-24T13:09:54;4.10;;;2.10;;
76228;SDS011;65021;53.174;18.160;2023-04-24T13:12:21;6.20;;;2.70;;
76228;SDS011;65021;53.174;18.160;2023-04-24T13:14:50;5.60;;;2.70;;
76228;SDS011;65021;53.174;18.160;2023-04-24T13:17:16;5.60;;;2.80;;
76228;SDS011;65021;53.174;18.160;2023-04-24T13:19:43;5.40;;;2.30;;
76228;SDS011;65021;53.174;18.160;2023-04-24T13:22:11;4.20;;;2.00;;
76228;SDS011;65021;53.174;18.160;2023-04-24T13:24:39;4.90;;;2.50;;
76228;SDS011;65021;53.174;18.160;2023-04-24T13:27:08;5.40;;;3.00;;
76228;SDS011;65021;53.174;18.160;2023-04-24T13:29:36;5.10;;;2.60;;
76228;SDS011;65021;53.174;18.160;2023-04-24T13:32:03;7.60;;;2.60;;
76228;SDS011;65021;53.174;18.160;2023-04-24T13:34:30;5.30;;;2.50;;
76228;SDS011;65021;53.174;18.160;2023-04-24T13:36:57;5.50;;;2.50;;
76228;SDS011;65021;53.174;18.160;2023-04-24T13:39:24;5.50;;;3.10;;
76228;SDS011;65021;53.174;18.160;2023-04-24T13:41:52;6.10;;;3.10;;
76228;SDS011;65021;53.174;18.160;2023-04-24T13:44:20;6.90;;;3.60;;
76228;SDS011;65021;53.174;18.160;2023-04-24T13:46:48;5.80;;;3.30;;
76228;SDS011;65021;53.174;18.160;2023-04-24T13:49:16;5.70;;;3.40;;
76228;SDS011;65021;53.174;18.160;2023-04-24T13:51:42;6.90;;;3.50;;
76228;SDS011;65021;53.174;18.160;2023-04-24T13:54:09;6.90;;;3.80;;
76228;SDS011;65021;53.174;18.160;2023-04-24T13:56:36;5.50;;;2.40;;
76228;SDS011;65021;53.174;18.160;2023-04-24T13:59:03;8.50;;;4.20;;
76228;SDS011;65021;53.174;18.160;2023-04-24T14:01:29;7.10;;;3.60;;
76228;SDS011;65021;53.174;18.160;2023-04-24T14:03:56;8.80;;;4.00;;
76228;SDS011;65021;53.174;18.160;2023-04-24T14:06:23;7.50;;;3.50;;
76228;SDS011;65021;53.174;18.160;2023-04-24T14:08:50;5.90;;;3.10;;
76228;SDS011;65021;53.174;18.160;2023-04-24T14:11:17;7.20;;;4.00;;
76228;SDS011;65021;53.174;18.160;2023-04-24T14:13:44;7.10;;;4.50;;
76228;SDS011;65021;53.174;18.160;2023-04-24T14:16:12;6.80;;;4.50;;
76228;SDS011;65021;53.174;18.160;2023-04-24T14:18:38;9.50;;;5.40;;
76228;SDS011;65021;53.174;18.160;2023-04-24T14:21:05;8.80;;;4.80;;
76228;SDS011;65021;53.174;18.160;2023-04-24T14:23:32;7.20;;;4.50;;
76228;SDS011;65021;53.174;18.160;2023-04-24T14:25:59;8.60;;;4.10;;
76228;SDS011;65021;53.174;18.160;2023-04-24T14:28:26;6.40;;;3.30;;
76228;SDS011;65021;53.174;18.160;2023-04-24T14:30:52;9.80;;;3.00;;
76228;SDS011;65021;53.174;18.160;2023-04-24T14:33:19;5.20;;;2.40;;
76228;SDS011;65021;53.174;18.160;2023-04-24T14:35:46;6.50;;;2.60;;
76228;SDS011;65021;53.174;18.160;2023-04-24T14:38:14;6.10;;;2.60;;
76228;SDS011;65021;53.174;18.160;2023-04-24T14:40:41;7.80;;;3.00;;
76228;SDS011;65021;53.174;18.160;2023-04-24T14:43:08;6.10;;;3.20;;
76228;SDS011;65021;53.174;18.160;2023-04-24T14:45:34;5.40;;;2.80;;
76228;SDS011;65021;53.174;18.160;2023-04-24T14:48:03;4.40;;;2.20;;
76228;SDS011;65021;53.174;18.160;2023-04-24T14:50:30;5.10;;;2.70;;
76228;SDS011;65021;53.174;18.160;2023-04-24T14:52:56;5.50;;;2.60;;
76228;SDS011;65021;53.174;18.160;2023-04-24T14:55:24;4.80;;;2.50;;